Namao, Canada
Current Conditions -  °F | °C
As of 12:00 AM on Wednesday 26 Nov 2014 (Local Time) from CYED Reporting Station
Overcast Overcast  
Wind Chill:   Ceiling: 1900
Heat Index: 12°   Visibility: 9mi
Dew Point:   Wind: 5mph
Humidity: 79%   Direction: 100°E
Pressure: 30.19"   Gusts: NA
Location:  53.72°N, 113.48°W
Report Text: CYED 260700Z AUTO 10004KT 9SM OVC019 M11/M14 A3019 RMK SLP271
Loading
Personal Weather Stations






























Interactive Weather Map New forecast layout! Learn more

10-Day Weather Forecast

Advertisements
Track Severe Weather on mobile